Terminal Aerodrome Forecast
Issued by NWS Cleveland, OH

Home | Current Version | Previous Version | Text Only | Print | Product List | Glossary Off
Versions: 1 2 3 4 5 6 7 8 9 10 11 12 13 14 15 16 17 18 19

000
FTUS41 KCLE 171136
TAFTOL
TAF
KTOL 171136Z 1712/1812 27015G25KT P6SM VCSH BKN035
      TEMPO 1712/1715 3SM -SHSN BR BKN015
     FM180200 29008KT P6SM SCT035=

USA.gov is the U.S. government's official web portal to all federal, state and local government web resources and services.